Time;durP1;ratioP1;P1;durP2;ratioP2;P2;SDS_P1;SDS_P2;PMS_P1;PMS_P2;Temp;Humidity;BMP_temperature;BMP_pressure;BME280_temperature;BME280_humidity;BME280_pressure;Samples;Min_cycle;Max_cycle;Signal;HPM_P1;HPM_P2
2024/03/29 00:00:37;;;;;;;1.25;0.50;;;;;;;;;;5053837;28;20037;-55
2024/03/29 00:03:03;;;;;;;2.08;1.00;;;;;;;;;;5053275;28;20352;-57
2024/03/29 00:05:29;;;;;;;1.42;0.77;;;;;;;;;;5053539;28;20025;-56
2024/03/29 00:07:55;;;;;;;2.95;1.10;;;;;;;;;;5054013;28;20131;-56
2024/03/29 00:10:21;;;;;;;3.00;0.80;;;;;;;;;;5053762;28;20052;-54
2024/03/29 00:12:47;;;;;;;2.97;0.80;;;;;;;;;;5053438;28;20040;-55
2024/03/29 00:15:12;;;;;;;2.38;1.27;;;;;;;;;;5053758;28;20032;-54
2024/03/29 00:17:38;;;;;;;3.20;0.98;;;;;;;;;;5054925;28;20035;-56
2024/03/29 00:20:05;;;;;;;1.52;0.70;;;;;;;;;;5057454;28;20079;-54
2024/03/29 00:22:31;;;;;;;1.50;0.90;;;;;;;;;;5057483;28;20025;-55
2024/03/29 00:24:57;;;;;;;4.63;0.82;;;;;;;;;;5057253;28;20419;-56
2024/03/29 00:27:26;;;;;;;4.00;1.10;;;;;;;;;;5057217;28;20029;-56
2024/03/29 00:29:55;;;;;;;1.50;0.75;;;;;;;;;;5057984;28;20029;-56
2024/03/29 00:32:24;;;;;;;2.35;1.02;;;;;;;;;;5056959;28;20386;-54
2024/03/29 00:34:50;;;;;;;1.60;0.80;;;;;;;;;;5057109;28;20029;-57
2024/03/29 00:37:16;;;;;;;2.80;1.15;;;;;;;;;;5057040;28;20024;-55
2024/03/29 00:39:42;;;;;;;0.80;0.50;;;;;;;;;;5056777;28;20135;-56
2024/03/29 00:42:19;;;;;;;1.80;0.80;;;;;;;;;;5056845;28;20036;-55
2024/03/29 00:44:45;;;;;;;2.13;0.93;;;;;;;;;;5057405;28;20025;-56
2024/03/29 00:47:12;;;;;;;2.42;1.08;;;;;;;;;;5057376;28;20359;-55
2024/03/29 00:49:39;;;;;;;2.08;0.80;;;;;;;;;;5057293;28;20040;-56
2024/03/29 00:52:05;;;;;;;1.27;0.75;;;;;;;;;;5057457;28;20032;-57
2024/03/29 00:54:31;;;;;;;0.73;0.38;;;;;;;;;;5056727;28;20032;-57
2024/03/29 00:56:57;;;;;;;1.40;0.70;;;;;;;;;;5057570;28;20071;-56
2024/03/29 00:59:23;;;;;;;2.28;1.00;;;;;;;;;;5057122;28;20021;-56
2024/03/29 01:01:50;;;;;;;1.55;0.77;;;;;;;;;;5056453;28;20036;-56
2024/03/29 01:04:16;;;;;;;1.33;0.70;;;;;;;;;;5056781;28;20031;-54
2024/03/29 01:06:42;;;;;;;2.72;0.75;;;;;;;;;;5056787;28;20072;-55
2024/03/29 01:09:12;;;;;;;2.20;0.73;;;;;;;;;;5057014;28;20033;-57
2024/03/29 01:11:38;;;;;;;1.58;0.57;;;;;;;;;;5056625;28;20079;-58
2024/03/29 01:14:04;;;;;;;3.03;0.68;;;;;;;;;;5056303;28;20053;-56
2024/03/29 01:16:30;;;;;;;2.53;0.80;;;;;;;;;;5056838;28;20021;-56
2024/03/29 01:18:58;;;;;;;1.40;0.60;;;;;;;;;;5057066;28;20025;-53
2024/03/29 01:21:24;;;;;;;1.48;0.50;;;;;;;;;;5056258;28;20033;-54
2024/03/29 01:23:50;;;;;;;1.00;0.45;;;;;;;;;;5056691;28;20025;-55
2024/03/29 01:26:17;;;;;;;1.58;0.70;;;;;;;;;;5056112;28;20405;-56
2024/03/29 01:28:43;;;;;;;0.75;0.45;;;;;;;;;;5056619;28;20458;-54
2024/03/29 01:31:09;;;;;;;2.55;0.80;;;;;;;;;;5056090;28;20025;-52
2024/03/29 01:33:37;;;;;;;0.80;0.43;;;;;;;;;;5056476;28;20040;-54
2024/03/29 01:36:03;;;;;;;1.83;1.00;;;;;;;;;;5055916;28;20036;-56
2024/03/29 01:38:29;;;;;;;1.05;0.45;;;;;;;;;;5056080;28;20021;-56
2024/03/29 01:40:55;;;;;;;1.20;0.55;;;;;;;;;;5055865;28;20028;-55
2024/03/29 01:43:21;;;;;;;1.13;0.43;;;;;;;;;;5055822;28;20112;-55
2024/03/29 01:45:49;;;;;;;1.70;0.82;;;;;;;;;;5055714;28;20577;-56
2024/03/29 01:48:15;;;;;;;1.80;0.80;;;;;;;;;;5056570;28;20028;-56
2024/03/29 01:50:42;;;;;;;0.80;0.40;;;;;;;;;;5055611;28;20033;-54
2024/03/29 01:53:08;;;;;;;1.13;0.60;;;;;;;;;;5055876;28;20382;-56
2024/03/29 01:55:35;;;;;;;1.08;0.63;;;;;;;;;;5056087;28;20029;-55
2024/03/29 01:58:02;;;;;;;2.90;0.90;;;;;;;;;;5056049;28;20462;-54
2024/03/29 02:00:28;;;;;;;1.13;0.40;;;;;;;;;;5055406;28;20036;-54
2024/03/29 02:02:55;;;;;;;2.08;0.50;;;;;;;;;;5055450;28;20065;-57
2024/03/29 02:05:21;;;;;;;0.73;0.40;;;;;;;;;;5055327;28;20060;-53
2024/03/29 02:07:48;;;;;;;2.38;0.80;;;;;;;;;;5055292;28;20029;-57
2024/03/29 02:10:14;;;;;;;1.00;0.57;;;;;;;;;;5055726;28;20029;-56
2024/03/29 02:12:40;;;;;;;0.98;0.40;;;;;;;;;;5055242;28;20119;-57
2024/03/29 02:15:07;;;;;;;1.80;0.73;;;;;;;;;;5055347;28;20064;-53
2024/03/29 02:17:33;;;;;;;0.80;0.45;;;;;;;;;;5055098;28;20032;-57
2024/03/29 02:19:59;;;;;;;1.50;0.60;;;;;;;;;;5055652;28;20460;-55
2024/03/29 02:22:25;;;;;;;0.57;0.30;;;;;;;;;;5055078;28;20032;-55
2024/03/29 02:24:52;;;;;;;2.33;0.77;;;;;;;;;;5053764;28;20025;-53
2024/03/29 02:27:18;;;;;;;1.75;0.75;;;;;;;;;;5055208;28;20472;-57
2024/03/29 02:29:44;;;;;;;0.93;0.47;;;;;;;;;;5055257;28;20398;-54
2024/03/29 02:32:10;;;;;;;1.17;0.52;;;;;;;;;;5055297;28;20032;-55
2024/03/29 02:34:36;;;;;;;1.17;0.50;;;;;;;;;;5054438;28;20485;-57
2024/03/29 02:37:02;;;;;;;1.75;0.52;;;;;;;;;;5055018;28;20078;-55
2024/03/29 02:39:28;;;;;;;4.00;0.60;;;;;;;;;;5054600;28;20025;-53
2024/03/29 02:41:54;;;;;;;1.13;0.55;;;;;;;;;;5055004;28;20037;-55
2024/03/29 02:44:20;;;;;;;1.85;0.43;;;;;;;;;;5054527;28;20079;-56
2024/03/29 02:46:46;;;;;;;2.50;0.52;;;;;;;;;;5054808;28;20356;-53
2024/03/29 02:49:11;;;;;;;0.68;0.40;;;;;;;;;;5054814;28;20060;-54
2024/03/29 02:51:37;;;;;;;0.90;0.40;;;;;;;;;;5054308;28;20033;-55
2024/03/29 02:54:03;;;;;;;2.58;0.70;;;;;;;;;;5054930;28;20456;-56
2024/03/29 02:56:30;;;;;;;1.17;0.43;;;;;;;;;;5054207;28;20556;-56
2024/03/29 02:58:56;;;;;;;0.95;0.60;;;;;;;;;;5054693;28;20044;-55
2024/03/29 03:01:22;;;;;;;1.40;0.60;;;;;;;;;;5054905;28;20452;-56
2024/03/29 03:03:48;;;;;;;1.60;0.63;;;;;;;;;;5054181;28;20520;-55
2024/03/29 03:06:14;;;;;;;1.10;0.50;;;;;;;;;;5053899;28;20463;-57
2024/03/29 03:11:24;;;;;;;1.10;0.55;;;;;;;;;;5054012;28;20044;-57
2024/03/29 03:13:50;;;;;;;1.27;0.60;;;;;;;;;;5054089;28;20119;-55
2024/03/29 03:16:16;;;;;;;0.75;0.35;;;;;;;;;;5053894;28;20056;-55
2024/03/29 03:18:42;;;;;;;0.70;0.32;;;;;;;;;;5054392;28;20029;-55
2024/03/29 03:21:08;;;;;;;0.93;0.45;;;;;;;;;;5053663;28;20036;-56
2024/03/29 03:23:34;;;;;;;0.65;0.40;;;;;;;;;;5054528;28;20029;-56
2024/03/29 03:26:02;;;;;;;0.52;0.20;;;;;;;;;;5054466;28;20036;-53
2024/03/29 03:28:28;;;;;;;0.80;0.40;;;;;;;;;;5054499;28;20106;-55
2024/03/29 03:30:54;;;;;;;1.13;0.47;;;;;;;;;;5053817;28;20459;-55
2024/03/29 03:33:21;;;;;;;1.38;0.32;;;;;;;;;;5053545;28;20411;-57
2024/03/29 03:35:47;;;;;;;1.63;0.40;;;;;;;;;;5053800;28;20020;-55
2024/03/29 03:38:13;;;;;;;0.75;0.45;;;;;;;;;;5053383;28;20475;-57
2024/03/29 03:40:39;;;;;;;1.45;0.52;;;;;;;;;;5054070;28;20029;-57
2024/03/29 03:43:06;;;;;;;1.17;0.50;;;;;;;;;;5054503;28;20060;-57
2024/03/29 03:45:35;;;;;;;1.50;0.60;;;;;;;;;;5053966;28;20017;-57
2024/03/29 03:48:02;;;;;;;1.10;0.30;;;;;;;;;;5053665;28;20029;-56
2024/03/29 03:50:28;;;;;;;1.00;0.50;;;;;;;;;;5053878;28;20021;-57
2024/03/29 03:52:54;;;;;;;1.48;0.43;;;;;;;;;;5055609;28;20036;-56
2024/03/29 03:55:20;;;;;;;0.55;0.28;;;;;;;;;;5058336;28;20029;-57
2024/03/29 03:57:46;;;;;;;1.02;0.20;;;;;;;;;;5058789;28;20075;-56
2024/03/29 04:00:12;;;;;;;0.43;0.15;;;;;;;;;;5057990;28;20025;-55
2024/03/29 04:02:38;;;;;;;0.95;0.45;;;;;;;;;;5057377;28;20467;-56
2024/03/29 04:05:04;;;;;;;1.05;0.43;;;;;;;;;;5058394;28;20029;-56
2024/03/29 04:07:30;;;;;;;0.55;0.25;;;;;;;;;;5057302;28;20079;-57
2024/03/29 04:09:56;;;;;;;0.55;0.22;;;;;;;;;;5058126;28;20024;-56
2024/03/29 04:12:22;;;;;;;0.45;0.20;;;;;;;;;;5057968;28;20055;-56
2024/03/29 04:14:48;;;;;;;0.82;0.30;;;;;;;;;;5057446;28;20029;-56
2024/03/29 04:17:14;;;;;;;0.80;0.30;;;;;;;;;;5057435;28;20366;-56
2024/03/29 04:19:40;;;;;;;0.57;0.32;;;;;;;;;;5057640;28;20059;-55
2024/03/29 04:22:06;;;;;;;1.25;0.47;;;;;;;;;;5057262;28;20490;-56
2024/03/29 04:24:32;;;;;;;1.38;0.40;;;;;;;;;;5057048;28;20032;-57
2024/03/29 04:26:58;;;;;;;0.68;0.38;;;;;;;;;;5056968;28;20040;-57
2024/03/29 04:29:24;;;;;;;0.47;0.20;;;;;;;;;;5057187;28;20023;-57
2024/03/29 04:31:50;;;;;;;0.65;0.30;;;;;;;;;;5056770;28;20033;-56
2024/03/29 04:34:16;;;;;;;1.10;0.40;;;;;;;;;;5057593;28;20036;-55
2024/03/29 04:36:42;;;;;;;0.47;0.20;;;;;;;;;;5057814;28;20407;-56
2024/03/29 04:39:08;;;;;;;0.63;0.28;;;;;;;;;;5057202;28;20021;-56
2024/03/29 04:41:34;;;;;;;0.60;0.35;;;;;;;;;;5056989;28;20029;-57
2024/03/29 04:44:01;;;;;;;0.63;0.38;;;;;;;;;;5057723;28;20021;-57
2024/03/29 04:46:29;;;;;;;0.77;0.30;;;;;;;;;;5056818;28;20455;-57
2024/03/29 04:48:55;;;;;;;1.20;0.40;;;;;;;;;;5056842;28;20063;-56
2024/03/29 04:51:21;;;;;;;0.68;0.43;;;;;;;;;;5056758;28;20064;-56
2024/03/29 04:53:47;;;;;;;0.47;0.20;;;;;;;;;;5057250;28;20021;-56
2024/03/29 04:56:13;;;;;;;0.45;0.20;;;;;;;;;;5057307;28;20040;-56
2024/03/29 04:58:39;;;;;;;1.27;0.50;;;;;;;;;;5057228;28;20116;-52
2024/03/29 05:01:05;;;;;;;0.57;0.30;;;;;;;;;;5056585;28;20104;-57
2024/03/29 05:03:31;;;;;;;1.00;0.45;;;;;;;;;;5056160;28;20073;-55
2024/03/29 05:05:57;;;;;;;0.73;0.40;;;;;;;;;;5056536;28;20510;-55
2024/03/29 05:08:23;;;;;;;0.73;0.20;;;;;;;;;;5056876;28;20052;-57
2024/03/29 05:10:50;;;;;;;0.65;0.20;;;;;;;;;;5056638;28;20052;-56
2024/03/29 05:13:16;;;;;;;0.52;0.20;;;;;;;;;;5056409;28;20374;-56
2024/03/29 05:15:42;;;;;;;0.85;0.30;;;;;;;;;;5056271;28;20025;-56
2024/03/29 05:18:08;;;;;;;0.68;0.22;;;;;;;;;;5056628;28;20082;-56
2024/03/29 05:20:34;;;;;;;0.63;0.30;;;;;;;;;;5057068;28;20020;-57
2024/03/29 05:23:00;;;;;;;0.65;0.30;;;;;;;;;;5056197;28;20419;-56
2024/03/29 05:25:26;;;;;;;1.15;0.40;;;;;;;;;;5055857;28;20031;-57
2024/03/29 05:27:52;;;;;;;0.95;0.20;;;;;;;;;;5056369;28;20075;-57
2024/03/29 05:30:18;;;;;;;0.93;0.40;;;;;;;;;;5056598;28;20037;-57
2024/03/29 05:32:44;;;;;;;0.80;0.35;;;;;;;;;;5056039;28;20021;-56
2024/03/29 05:35:10;;;;;;;0.38;0.20;;;;;;;;;;5056509;28;20134;-57
2024/03/29 05:37:37;;;;;;;0.57;0.20;;;;;;;;;;5055644;28;20032;-54
2024/03/29 05:40:07;;;;;;;0.77;0.30;;;;;;;;;;5056007;28;20115;-57
2024/03/29 05:42:34;;;;;;;0.32;0.20;;;;;;;;;;5056490;28;20029;-56
2024/03/29 05:45:00;;;;;;;0.68;0.40;;;;;;;;;;5055878;28;20021;-56
2024/03/29 05:47:26;;;;;;;0.85;0.30;;;;;;;;;;5055793;28;20064;-57
2024/03/29 05:49:52;;;;;;;0.38;0.17;;;;;;;;;;5056098;28;20021;-56
2024/03/29 05:52:18;;;;;;;0.82;0.40;;;;;;;;;;5055327;28;20029;-56
2024/03/29 05:54:45;;;;;;;0.80;0.32;;;;;;;;;;5055704;28;20036;-57
2024/03/29 05:57:11;;;;;;;0.57;0.20;;;;;;;;;;5055855;28;20080;-56
2024/03/29 05:59:37;;;;;;;0.75;0.47;;;;;;;;;;5055248;28;20103;-56
2024/03/29 06:02:03;;;;;;;4.07;0.47;;;;;;;;;;5056227;28;20029;-54
2024/03/29 06:04:32;;;;;;;0.28;0.10;;;;;;;;;;5055401;28;20031;-56
2024/03/29 06:07:02;;;;;;;0.17;0.10;;;;;;;;;;5055919;28;20047;-57
2024/03/29 06:09:28;;;;;;;0.82;0.40;;;;;;;;;;5055917;28;20033;-56
2024/03/29 06:11:55;;;;;;;0.22;0.17;;;;;;;;;;5055752;28;20064;-57
2024/03/29 06:17:23;;;;;;;1.60;0.32;;;;;;;;;;5055267;28;20159;-56
2024/03/29 06:19:55;;;;;;;0.40;0.17;;;;;;;;;;5055127;28;20057;-57
2024/03/29 06:22:21;;;;;;;2.63;0.60;;;;;;;;;;5055050;28;20057;-57
2024/03/29 06:24:48;;;;;;;1.10;0.40;;;;;;;;;;5055016;28;20064;-57
2024/03/29 06:27:17;;;;;;;0.98;0.50;;;;;;;;;;5054968;28;20028;-56
2024/03/29 06:29:44;;;;;;;0.80;0.38;;;;;;;;;;5055559;28;20104;-56
2024/03/29 06:32:10;;;;;;;1.75;0.43;;;;;;;;;;5054509;28;20463;-57
2024/03/29 06:34:36;;;;;;;0.68;0.30;;;;;;;;;;5055095;28;20028;-57
2024/03/29 06:37:02;;;;;;;0.95;0.43;;;;;;;;;;5054747;28;20039;-56
2024/03/29 06:39:28;;;;;;;0.63;0.30;;;;;;;;;;5054683;28;20083;-57
2024/03/29 06:41:54;;;;;;;0.52;0.25;;;;;;;;;;5054665;28;20029;-57
2024/03/29 06:44:20;;;;;;;0.52;0.40;;;;;;;;;;5055130;28;20025;-57
2024/03/29 06:46:46;;;;;;;1.17;0.20;;;;;;;;;;5054589;28;20028;-56
2024/03/29 06:49:12;;;;;;;3.40;0.50;;;;;;;;;;5055368;28;20029;-57
2024/03/29 06:51:41;;;;;;;0.73;0.32;;;;;;;;;;5053272;28;20033;-57
2024/03/29 06:54:07;;;;;;;0.95;0.40;;;;;;;;;;5054415;28;20033;-57
2024/03/29 06:56:33;;;;;;;0.88;0.20;;;;;;;;;;5054186;28;20442;-57
2024/03/29 06:58:59;;;;;;;1.15;0.22;;;;;;;;;;5054458;28;20044;-57
2024/03/29 07:01:25;;;;;;;0.52;0.20;;;;;;;;;;5054915;28;20029;-57
2024/03/29 07:03:52;;;;;;;0.35;0.20;;;;;;;;;;5055094;28;20099;-57
2024/03/29 07:06:18;;;;;;;1.00;0.25;;;;;;;;;;5055015;28;20024;-57
2024/03/29 07:08:45;;;;;;;1.55;0.50;;;;;;;;;;5055122;28;20505;-57
2024/03/29 07:11:11;;;;;;;0.45;0.30;;;;;;;;;;5054560;28;20128;-57
2024/03/29 07:13:37;;;;;;;0.75;0.30;;;;;;;;;;5054147;28;20519;-57
2024/03/29 07:16:03;;;;;;;0.93;0.40;;;;;;;;;;5054327;28;20025;-57
2024/03/29 07:18:29;;;;;;;0.73;0.40;;;;;;;;;;5054359;28;20394;-57
2024/03/29 07:20:55;;;;;;;0.70;0.32;;;;;;;;;;5054836;28;20043;-57
2024/03/29 07:23:21;;;;;;;1.02;0.32;;;;;;;;;;5053731;28;20025;-57
2024/03/29 07:26:00;;;;;;;0.77;0.40;;;;;;;;;;5053871;28;20028;-57
2024/03/29 07:28:27;;;;;;;0.68;0.30;;;;;;;;;;5054153;28;20025;-57
2024/03/29 07:30:53;;;;;;;1.30;0.45;;;;;;;;;;5053804;28;20033;-57
2024/03/29 07:33:21;;;;;;;0.90;0.50;;;;;;;;;;5054416;28;20028;-57
2024/03/29 07:35:47;;;;;;;1.42;0.50;;;;;;;;;;5053764;28;20029;-56
2024/03/29 07:38:16;;;;;;;1.50;0.30;;;;;;;;;;5054471;28;20367;-56
2024/03/29 07:40:42;;;;;;;2.17;0.65;;;;;;;;;;5053776;28;20021;-57
2024/03/29 07:43:08;;;;;;;0.60;0.30;;;;;;;;;;5053753;28;20150;-57
2024/03/29 07:45:34;;;;;;;1.08;0.60;;;;;;;;;;5053721;28;20441;-57
2024/03/29 07:48:00;;;;;;;1.23;0.50;;;;;;;;;;5053967;28;20027;-56
2024/03/29 07:50:26;;;;;;;1.27;0.50;;;;;;;;;;5054162;28;20033;-56
2024/03/29 07:52:52;;;;;;;0.93;0.45;;;;;;;;;;5053726;28;20029;-57
2024/03/29 07:55:18;;;;;;;2.85;0.45;;;;;;;;;;5053862;28;20032;-57
2024/03/29 07:57:46;;;;;;;0.90;0.52;;;;;;;;;;5053612;28;20044;-55
2024/03/29 08:00:12;;;;;;;1.33;0.45;;;;;;;;;;5054285;28;20037;-55
2024/03/29 08:02:42;;;;;;;1.73;0.60;;;;;;;;;;5053787;28;20411;-56
2024/03/29 08:05:08;;;;;;;1.23;0.47;;;;;;;;;;5054020;28;20067;-57
2024/03/29 08:07:34;;;;;;;1.80;0.60;;;;;;;;;;5053424;28;20255;-57
2024/03/29 08:10:00;;;;;;;1.30;0.63;;;;;;;;;;5053721;28;20029;-57
2024/03/29 08:12:26;;;;;;;0.85;0.40;;;;;;;;;;5053367;28;20383;-57
2024/03/29 08:14:52;;;;;;;1.17;0.50;;;;;;;;;;5053308;28;20028;-57
2024/03/29 08:17:18;;;;;;;1.30;0.38;;;;;;;;;;5053252;28;20017;-57
2024/03/29 08:19:44;;;;;;;1.67;0.68;;;;;;;;;;5054198;28;20394;-56
2024/03/29 08:22:10;;;;;;;1.77;0.70;;;;;;;;;;5053025;28;20087;-57
2024/03/29 08:24:37;;;;;;;1.42;0.77;;;;;;;;;;5053315;28;20029;-56
2024/03/29 08:27:03;;;;;;;1.92;0.93;;;;;;;;;;5053287;28;20029;-57
2024/03/29 08:29:29;;;;;;;1.70;0.88;;;;;;;;;;5053031;28;20463;-56
2024/03/29 08:31:55;;;;;;;1.15;0.50;;;;;;;;;;5052757;28;20029;-56
2024/03/29 08:34:21;;;;;;;1.48;0.90;;;;;;;;;;5053611;28;20108;-56
2024/03/29 08:36:47;;;;;;;3.22;0.80;;;;;;;;;;5053047;28;20071;-56
2024/03/29 08:39:13;;;;;;;1.88;0.90;;;;;;;;;;5055706;28;20439;-55
2024/03/29 08:41:39;;;;;;;1.45;0.70;;;;;;;;;;5056862;28;20124;-57
2024/03/29 08:44:06;;;;;;;2.28;0.75;;;;;;;;;;5056891;28;20097;-57
2024/03/29 08:46:32;;;;;;;1.40;0.63;;;;;;;;;;5057050;28;20025;-57
2024/03/29 08:48:57;;;;;;;0.77;0.38;;;;;;;;;;5057304;28;20103;-57
2024/03/29 08:51:24;;;;;;;1.27;0.60;;;;;;;;;;5057354;28;20064;-57
2024/03/29 08:53:50;;;;;;;2.25;0.70;;;;;;;;;;5056544;28;20032;-57
2024/03/29 08:56:16;;;;;;;0.98;0.50;;;;;;;;;;5056151;28;20076;-57
2024/03/29 08:58:42;;;;;;;1.23;0.60;;;;;;;;;;5056452;28;20036;-57
2024/03/29 09:01:08;;;;;;;1.38;0.63;;;;;;;;;;5056494;28;20025;-57
2024/03/29 09:03:34;;;;;;;2.80;0.90;;;;;;;;;;5057065;28;20078;-57
2024/03/29 09:06:00;;;;;;;1.02;0.45;;;;;;;;;;5057021;28;20028;-58
2024/03/29 09:08:26;;;;;;;0.88;0.35;;;;;;;;;;5056978;28;20469;-57
2024/03/29 09:10:52;;;;;;;1.08;0.55;;;;;;;;;;5056882;28;20073;-57
2024/03/29 09:13:18;;;;;;;1.45;0.70;;;;;;;;;;5057196;28;20059;-57
2024/03/29 09:15:44;;;;;;;1.55;0.43;;;;;;;;;;5056889;28;20021;-58
2024/03/29 09:18:17;;;;;;;0.90;0.52;;;;;;;;;;5056274;28;20032;-57
2024/03/29 09:20:42;;;;;;;1.50;0.60;;;;;;;;;;5056240;28;20029;-55
2024/03/29 09:23:08;;;;;;;2.28;0.73;;;;;;;;;;5055904;28;20027;-57
2024/03/29 09:25:34;;;;;;;0.95;0.40;;;;;;;;;;5056454;28;20029;-57
2024/03/29 09:28:00;;;;;;;1.08;0.57;;;;;;;;;;5056617;28;20340;-58
2024/03/29 09:30:26;;;;;;;2.25;0.50;;;;;;;;;;5056044;28;20028;-57
2024/03/29 09:32:52;;;;;;;0.82;0.43;;;;;;;;;;5056076;28;20029;-57
2024/03/29 09:35:19;;;;;;;0.95;0.60;;;;;;;;;;5055670;28;20090;-57
2024/03/29 09:37:46;;;;;;;1.55;0.90;;;;;;;;;;5055557;28;20025;-58
2024/03/29 09:40:12;;;;;;;2.13;0.88;;;;;;;;;;5056310;28;20029;-58
2024/03/29 09:42:40;;;;;;;1.30;0.70;;;;;;;;;;5055888;28;20043;-57
2024/03/29 09:45:06;;;;;;;1.23;0.60;;;;;;;;;;5055785;28;20167;-58
2024/03/29 09:47:33;;;;;;;1.33;0.70;;;;;;;;;;5055777;28;20036;-59
2024/03/29 09:50:06;;;;;;;1.35;0.63;;;;;;;;;;5054485;28;20112;-59
2024/03/29 09:52:32;;;;;;;1.15;0.73;;;;;;;;;;5055352;28;20068;-58
2024/03/29 09:55:00;;;;;;;3.05;0.80;;;;;;;;;;5056129;28;20100;-58
2024/03/29 09:57:30;;;;;;;4.88;0.93;;;;;;;;;;5055741;28;20399;-57
2024/03/29 09:59:56;;;;;;;4.18;0.98;;;;;;;;;;5055416;28;20159;-58
2024/03/29 10:02:26;;;;;;;2.05;0.70;;;;;;;;;;5055795;28;20033;-57
2024/03/29 10:04:53;;;;;;;2.28;1.10;;;;;;;;;;5056109;28;20040;-58
2024/03/29 10:07:20;;;;;;;1.73;0.90;;;;;;;;;;5054992;28;20028;-58
2024/03/29 10:09:46;;;;;;;1.17;0.77;;;;;;;;;;5055569;28;20426;-57
2024/03/29 10:12:12;;;;;;;2.47;1.20;;;;;;;;;;5055222;28;20037;-58
2024/03/29 10:14:48;;;;;;;1.92;1.20;;;;;;;;;;5055786;28;20024;-57
2024/03/29 10:17:15;;;;;;;1.80;1.10;;;;;;;;;;5055748;28;20025;-57
2024/03/29 10:19:41;;;;;;;2.35;0.85;;;;;;;;;;5055390;28;20021;-56
2024/03/29 10:22:07;;;;;;;3.53;1.20;;;;;;;;;;5055872;28;20513;-58
2024/03/29 10:24:34;;;;;;;1.80;1.27;;;;;;;;;;5055337;28;20025;-58
2024/03/29 10:27:00;;;;;;;1.83;1.00;;;;;;;;;;5055439;28;20025;-57
2024/03/29 10:29:29;;;;;;;2.10;1.20;;;;;;;;;;5055536;28;20370;-58
2024/03/29 10:31:56;;;;;;;2.88;1.65;;;;;;;;;;5054834;28;20388;-58
2024/03/29 10:34:23;;;;;;;2.80;1.35;;;;;;;;;;5054915;28;20029;-57
2024/03/29 10:36:50;;;;;;;1.95;1.23;;;;;;;;;;5055094;28;20036;-58
2024/03/29 10:39:16;;;;;;;1.73;0.90;;;;;;;;;;5054606;28;20033;-57
2024/03/29 10:41:43;;;;;;;1.98;0.85;;;;;;;;;;5055090;28;20446;-57
2024/03/29 10:44:11;;;;;;;3.90;1.73;;;;;;;;;;5055015;28;20107;-57
2024/03/29 10:46:39;;;;;;;2.33;0.88;;;;;;;;;;5054579;28;20032;-57
2024/03/29 10:49:07;;;;;;;1.77;1.10;;;;;;;;;;5055251;28;20029;-58
2024/03/29 10:51:34;;;;;;;3.83;1.38;;;;;;;;;;5054482;28;20141;-58
2024/03/29 10:54:01;;;;;;;2.90;1.08;;;;;;;;;;5054289;28;20053;-58
2024/03/29 10:56:27;;;;;;;1.77;0.90;;;;;;;;;;5054657;28;20052;-58
2024/03/29 10:58:55;;;;;;;3.28;1.27;;;;;;;;;;5053804;28;20029;-58
2024/03/29 11:01:22;;;;;;;2.47;1.23;;;;;;;;;;5053787;28;20032;-58
2024/03/29 11:03:51;;;;;;;2.50;1.13;;;;;;;;;;5054138;28;20112;-57
2024/03/29 11:06:19;;;;;;;2.03;0.85;;;;;;;;;;5054810;28;20036;-58
2024/03/29 11:08:47;;;;;;;1.52;0.80;;;;;;;;;;5054624;28;20123;-57
2024/03/29 11:11:13;;;;;;;1.85;1.15;;;;;;;;;;5054379;28;20090;-58
2024/03/29 11:13:48;;;;;;;2.28;1.00;;;;;;;;;;5053895;28;20524;-58
2024/03/29 11:16:19;;;;;;;2.50;1.00;;;;;;;;;;5053622;28;20415;-58
2024/03/29 11:18:44;;;;;;;;;;;;;;;;;;5054580;28;20021;-58
2024/03/29 11:21:11;;;;;;;3.05;1.00;;;;;;;;;;5054406;28;20054;-58
2024/03/29 11:23:39;;;;;;;1.42;0.90;;;;;;;;;;5054308;28;20040;-58
2024/03/29 11:26:06;;;;;;;2.67;0.60;;;;;;;;;;5053763;28;20033;-58
2024/03/29 11:28:35;;;;;;;1.75;0.63;;;;;;;;;;5054586;28;20029;-58
2024/03/29 11:31:04;;;;;;;1.58;1.00;;;;;;;;;;5054515;28;20187;-58
2024/03/29 11:33:33;;;;;;;1.50;0.80;;;;;;;;;;5053641;28;20037;-58
2024/03/29 11:36:00;;;;;;;2.95;1.10;;;;;;;;;;5053589;28;20120;-58
2024/03/29 11:38:34;;;;;;;1.75;0.95;;;;;;;;;;5053939;28;20029;-58
2024/03/29 11:41:13;;;;;;;2.13;0.73;;;;;;;;;;5053903;28;20024;-58
2024/03/29 11:43:39;;;;;;;1.33;0.77;;;;;;;;;;5054035;28;20024;-58
2024/03/29 11:46:07;;;;;;;1.63;0.93;;;;;;;;;;5053354;28;20025;-58
2024/03/29 11:48:33;;;;;;;2.63;0.73;;;;;;;;;;5054241;28;20082;-58
2024/03/29 11:50:59;;;;;;;1.70;0.82;;;;;;;;;;5053371;28;20033;-58
2024/03/29 11:53:27;;;;;;;1.73;1.00;;;;;;;;;;5053344;28;20107;-58
2024/03/29 11:55:53;;;;;;;2.45;1.02;;;;;;;;;;5053419;28;20031;-58
2024/03/29 11:58:26;;;;;;;2.05;0.95;;;;;;;;;;5053994;28;20049;-58
2024/03/29 12:00:52;;;;;;;1.77;0.80;;;;;;;;;;5053415;28;20029;-58
2024/03/29 12:03:19;;;;;;;1.73;0.82;;;;;;;;;;5053985;28;20028;-58
2024/03/29 12:05:46;;;;;;;2.00;0.88;;;;;;;;;;5053307;28;20025;-58
2024/03/29 12:08:12;;;;;;;2.00;0.95;;;;;;;;;;5053341;28;20029;-58
2024/03/29 12:10:38;;;;;;;1.25;0.57;;;;;;;;;;5053256;28;20139;-58
2024/03/29 12:13:07;;;;;;;0.90;0.40;;;;;;;;;;5054184;28;20356;-58
2024/03/29 12:15:34;;;;;;;1.45;0.70;;;;;;;;;;5057844;28;20029;-58
2024/03/29 12:18:05;;;;;;;1.00;0.70;;;;;;;;;;5057350;28;20025;-58
2024/03/29 12:20:31;;;;;;;0.65;0.40;;;;;;;;;;5057572;28;20090;-58
2024/03/29 12:23:00;;;;;;;1.30;0.65;;;;;;;;;;5057084;28;20086;-58
2024/03/29 12:25:26;;;;;;;4.45;0.80;;;;;;;;;;5057733;28;20025;-58
2024/03/29 12:27:53;;;;;;;1.50;0.47;;;;;;;;;;5057401;28;20025;-58
2024/03/29 12:30:19;;;;;;;1.58;0.68;;;;;;;;;;5057618;28;20021;-58
2024/03/29 12:32:45;;;;;;;1.23;0.57;;;;;;;;;;5056650;28;20486;-58
2024/03/29 12:35:15;;;;;;;1.73;0.70;;;;;;;;;;5056972;28;20094;-58
2024/03/29 12:37:51;;;;;;;1.23;0.52;;;;;;;;;;5057103;28;20546;-58
2024/03/29 12:40:23;;;;;;;0.88;0.50;;;;;;;;;;5056822;28;20064;-58
2024/03/29 12:42:50;;;;;;;2.25;0.80;;;;;;;;;;5056866;28;20029;-58
2024/03/29 12:45:16;;;;;;;1.80;0.75;;;;;;;;;;5056717;28;20520;-59
2024/03/29 12:47:42;;;;;;;0.88;0.30;;;;;;;;;;5057258;28;20021;-59
2024/03/29 12:50:08;;;;;;;1.15;0.65;;;;;;;;;;5057362;28;20052;-59
2024/03/29 12:52:38;;;;;;;1.83;0.70;;;;;;;;;;5056220;28;20089;-59
2024/03/29 12:55:05;;;;;;;1.57;0.67;;;;;;;;;;5056689;28;20028;-59
2024/03/29 12:57:31;;;;;;;1.63;0.77;;;;;;;;;;5056561;28;20052;-59
2024/03/29 12:59:57;;;;;;;1.42;0.57;;;;;;;;;;5055781;28;20021;-59
2024/03/29 13:02:23;;;;;;;1.77;0.65;;;;;;;;;;5056487;28;20025;-59
2024/03/29 13:04:49;;;;;;;1.30;0.55;;;;;;;;;;5056935;28;20462;-59
2024/03/29 13:07:15;;;;;;;3.05;0.60;;;;;;;;;;5056425;28;20028;-59
2024/03/29 13:09:41;;;;;;;2.33;0.77;;;;;;;;;;5057008;28;20383;-59
2024/03/29 13:12:07;;;;;;;1.23;0.73;;;;;;;;;;5056045;28;20025;-59
2024/03/29 13:14:33;;;;;;;3.47;0.70;;;;;;;;;;5056318;28;20021;-58
2024/03/29 13:16:59;;;;;;;1.05;0.50;;;;;;;;;;5056277;28;20425;-59
2024/03/29 13:19:26;;;;;;;1.85;0.75;;;;;;;;;;5056857;28;20083;-58
2024/03/29 13:21:52;;;;;;;1.35;0.60;;;;;;;;;;5056977;28;20025;-59
2024/03/29 13:24:18;;;;;;;1.77;0.90;;;;;;;;;;5056328;28;20520;-59
2024/03/29 13:26:44;;;;;;;1.05;0.52;;;;;;;;;;5055980;28;20029;-59
2024/03/29 13:29:13;;;;;;;2.40;0.93;;;;;;;;;;5056519;28;20020;-59
2024/03/29 13:31:39;;;;;;;1.73;0.77;;;;;;;;;;5056474;28;20030;-59
2024/03/29 13:34:12;;;;;;;1.90;0.82;;;;;;;;;;5056136;28;20102;-59
2024/03/29 13:36:41;;;;;;;0.98;0.60;;;;;;;;;;5056140;28;20356;-59
2024/03/29 13:39:09;;;;;;;1.25;0.70;;;;;;;;;;5056574;28;20025;-59
2024/03/29 13:41:35;;;;;;;1.27;0.65;;;;;;;;;;5056135;28;20119;-59
2024/03/29 13:44:05;;;;;;;1.00;0.55;;;;;;;;;;5055668;28;20155;-59
2024/03/29 13:46:32;;;;;;;1.23;0.47;;;;;;;;;;5056103;28;20032;-59
2024/03/29 13:48:58;;;;;;;0.82;0.40;;;;;;;;;;5056030;28;20043;-60
2024/03/29 13:51:24;;;;;;;2.38;0.90;;;;;;;;;;5055390;28;20025;-60
2024/03/29 13:53:50;;;;;;;1.80;0.45;;;;;;;;;;5055933;28;20013;-57
2024/03/29 13:56:16;;;;;;;2.53;0.55;;;;;;;;;;5055277;28;20043;-58
2024/03/29 13:58:41;;;;;;;0.77;0.50;;;;;;;;;;5055396;28;20025;-58
2024/03/29 14:01:08;;;;;;;1.48;0.60;;;;;;;;;;5056083;28;20028;-58
2024/03/29 14:03:34;;;;;;;0.88;0.38;;;;;;;;;;5056067;28;20021;-58
2024/03/29 14:06:00;;;;;;;2.33;0.77;;;;;;;;;;5055576;28;20021;-58
2024/03/29 14:08:26;;;;;;;1.40;0.65;;;;;;;;;;5055216;28;20463;-58
2024/03/29 14:10:53;;;;;;;1.08;0.50;;;;;;;;;;5055452;28;20033;-58
2024/03/29 14:13:19;;;;;;;1.20;0.40;;;;;;;;;;5054883;28;20029;-58
2024/03/29 14:15:45;;;;;;;0.82;0.47;;;;;;;;;;5054827;28;20036;-58
2024/03/29 14:18:11;;;;;;;3.38;0.40;;;;;;;;;;5055137;28;20025;-58
2024/03/29 14:20:37;;;;;;;0.90;0.50;;;;;;;;;;5055342;28;20027;-58
2024/03/29 14:23:04;;;;;;;0.73;0.40;;;;;;;;;;5055429;28;20056;-58
2024/03/29 14:25:29;;;;;;;1.50;0.80;;;;;;;;;;5054992;28;20060;-58
2024/03/29 14:27:57;;;;;;;2.28;0.55;;;;;;;;;;5055351;28;20103;-58
2024/03/29 14:30:23;;;;;;;1.60;0.90;;;;;;;;;;5055593;28;20099;-58
2024/03/29 14:32:51;;;;;;;1.90;0.63;;;;;;;;;;5055378;28;20025;-58
2024/03/29 14:35:17;;;;;;;1.42;0.68;;;;;;;;;;5054561;28;20028;-58
2024/03/29 14:37:43;;;;;;;1.45;0.60;;;;;;;;;;5052926;28;20087;-58
2024/03/29 14:40:12;;;;;;;1.35;0.70;;;;;;;;;;5054678;28;20025;-58
2024/03/29 14:42:38;;;;;;;0.77;0.30;;;;;;;;;;5054605;28;20025;-58
2024/03/29 14:45:04;;;;;;;1.27;0.80;;;;;;;;;;5054903;28;20025;-58